Time;durP1;ratioP1;P1;durP2;ratioP2;P2;SDS_P1;SDS_P2;PMS_P1;PMS_P2;Temp;Humidity;BMP_temperature;BMP_pressure;BME280_temperature;BME280_humidity;BME280_pressure;Samples;Min_cycle;Max_cycle;Signal;HPM_P1;HPM_P2
2021/07/19 00:02:02;;;;;;;5.75;3.58;;;;;;;;;;6128757;28;20047;-82
2021/07/19 00:05:04;;;;;;;;;;;;;;;;;;6146618;28;20071;-82
2021/07/19 00:08:06;;;;;;;7.25;4.40;;;;;;;;;;6145488;28;20481;-82
2021/07/19 00:11:08;;;;;;;4.95;4.13;;;;;;;;;;6144019;28;20051;-81
2021/07/19 00:14:10;;;;;;;5.60;4.00;;;;;;;;;;6146244;28;20051;-82
2021/07/19 00:17:14;;;;;;;5.13;3.72;;;;;;;;;;6136864;28;20055;-82
2021/07/19 00:20:17;;;;;;;7.32;3.53;;;;;;;;;;6136455;29;20122;-82
2021/07/19 00:23:19;;;;;;;;;;;;;;;;;;6122213;29;20178;-82
2021/07/19 00:26:21;;;;;;;7.28;3.80;;;;;;;;;;6121429;29;20010;-81
2021/07/19 00:29:26;;;;;;;7.72;4.15;;;;;;;;;;6121606;29;20175;-82
2021/07/19 00:32:27;;;;;;;6.30;4.07;;;;;;;;;;6142346;28;20063;-81
2021/07/19 00:35:29;;;;;;;5.32;3.80;;;;;;;;;;6121907;29;20528;-82
2021/07/19 00:38:32;;;;;;;6.15;3.90;;;;;;;;;;6122151;29;20043;-82
2021/07/19 00:41:34;;;;;;;6.45;3.58;;;;;;;;;;6134140;29;20048;-82
2021/07/19 00:44:36;;;;;;;7.45;3.60;;;;;;;;;;6134848;29;20075;-82
2021/07/19 00:47:38;;;;;;;5.13;3.55;;;;;;;;;;6137013;28;20040;-82
2021/07/19 00:50:40;;;;;;;6.20;3.70;;;;;;;;;;6145698;28;20047;-82
2021/07/19 00:53:42;;;;;;;6.57;4.40;;;;;;;;;;6144676;28;20039;-82
2021/07/19 00:56:46;;;;;;;8.10;4.53;;;;;;;;;;6125757;28;20040;-82
2021/07/19 00:59:49;;;;;;;5.93;4.63;;;;;;;;;;6135681;29;20386;-81
2021/07/19 01:02:51;;;;;;;5.07;4.10;;;;;;;;;;6121540;29;20047;-82
2021/07/19 01:05:55;;;;;;;9.52;5.45;;;;;;;;;;6119640;29;20413;-82
2021/07/19 01:09:01;;;;;;;7.65;4.97;;;;;;;;;;6133629;29;20497;-82
2021/07/19 01:12:03;;;;;;;8.68;5.05;;;;;;;;;;6119999;29;20048;-82
2021/07/19 01:15:12;;;;;;;10.20;4.95;;;;;;;;;;6111163;29;20043;-82
2021/07/19 01:18:16;;;;;;;5.68;4.07;;;;;;;;;;6117040;29;20044;-82
2021/07/19 01:21:47;;;;;;;5.03;4.22;;;;;;;;;;6117302;29;20455;-82
2021/07/19 01:25:02;;;;;;;7.03;4.45;;;;;;;;;;6100755;29;20043;-82
2021/07/19 01:28:16;;;;;;;7.72;4.95;;;;;;;;;;6117883;29;20746;-82
2021/07/19 01:31:31;;;;;;;7.10;4.40;;;;;;;;;;6140560;28;20047;-82
2021/07/19 01:34:35;;;;;;;9.85;4.70;;;;;;;;;;6117898;29;20054;-82
2021/07/19 01:37:39;;;;;;;7.88;4.55;;;;;;;;;;6130378;28;20036;-82
2021/07/19 01:40:52;;;;;;;6.97;4.47;;;;;;;;;;6140182;28;20050;-82
2021/07/19 01:43:57;;;;;;;6.78;4.68;;;;;;;;;;6149986;28;20079;-82
2021/07/19 01:47:00;;;;;;;9.20;4.72;;;;;;;;;;6127812;28;20138;-82
2021/07/19 01:50:08;;;;;;;7.65;4.60;;;;;;;;;;6141577;28;20062;-82
2021/07/19 01:53:41;;;;;;;7.35;4.57;;;;;;;;;;6142484;28;20047;-82
2021/07/19 01:56:45;;;;;;;7.50;4.15;;;;;;;;;;6145311;28;20051;-82
2021/07/19 01:59:50;;;;;;;8.63;4.60;;;;;;;;;;6145861;28;20051;-82
2021/07/19 02:03:02;;;;;;;7.45;4.57;;;;;;;;;;6131777;29;20124;-82
2021/07/19 02:06:10;;;;;;;7.72;5.43;;;;;;;;;;6122191;29;20066;-82
2021/07/19 02:09:18;;;;;;;10.38;5.10;;;;;;;;;;6137633;29;20044;-81
2021/07/19 02:12:53;;;;;;;;;;;;;;;;;;6134706;28;20130;-82
2021/07/19 02:15:56;;;;;;;11.48;5.63;;;;;;;;;;6129305;28;19929;-82
2021/07/19 02:19:02;;;;;;;7.07;5.20;;;;;;;;;;6161484;28;20122;-82
2021/07/19 02:22:09;;;;;;;7.78;5.95;;;;;;;;;;6146489;28;20039;-82
2021/07/19 02:25:23;;;;;;;8.23;5.15;;;;;;;;;;6120808;29;20050;-81
2021/07/19 02:28:33;;;;;;;8.93;5.38;;;;;;;;;;6138575;28;20194;-82
2021/07/19 02:31:37;;;;;;;6.63;4.80;;;;;;;;;;6131738;28;20040;-81
2021/07/19 02:34:40;;;;;;;10.25;5.18;;;;;;;;;;6120271;29;20048;-82
2021/07/19 02:37:44;;;;;;;9.80;6.30;;;;;;;;;;6122729;29;20047;-82
2021/07/19 02:40:54;;;;;;;9.20;6.07;;;;;;;;;;6118572;29;20075;-81
2021/07/19 02:44:01;;;;;;;8.50;5.20;;;;;;;;;;6112653;29;20058;-82
2021/07/19 02:47:18;;;;;;;7.22;4.70;;;;;;;;;;6119520;29;20521;-82
2021/07/19 02:50:24;;;;;;;9.50;5.43;;;;;;;;;;6122115;29;20103;-81
2021/07/19 02:53:30;;;;;;;8.90;5.22;;;;;;;;;;6125451;29;20039;-81
2021/07/19 02:56:37;;;;;;;9.02;4.97;;;;;;;;;;6148436;29;20059;-80
2021/07/19 02:59:40;;;;;;;8.00;4.80;;;;;;;;;;6148251;28;20047;-80
2021/07/19 03:02:48;;;;;;;9.65;5.13;;;;;;;;;;6140097;28;20039;-81
2021/07/19 03:05:59;;;;;;;6.68;4.43;;;;;;;;;;6129307;29;20065;-80
2021/07/19 03:09:04;;;;;;;7.35;4.53;;;;;;;;;;6187080;28;20074;-81
2021/07/19 03:12:19;;;;;;;7.13;4.55;;;;;;;;;;6138276;28;20052;-81
2021/07/19 03:15:26;;;;;;;7.95;5.10;;;;;;;;;;6130510;28;20868;-81
2021/07/19 03:18:35;;;;;;;6.05;4.57;;;;;;;;;;6140516;28;20051;-80
2021/07/19 03:21:40;;;;;;;5.82;4.38;;;;;;;;;;6138596;28;20448;-80
2021/07/19 03:24:50;;;;;;;5.82;4.05;;;;;;;;;;6147461;28;20461;-80
2021/07/19 03:27:54;;;;;;;8.35;5.40;;;;;;;;;;6140126;28;20051;-80
2021/07/19 03:30:57;;;;;;;8.23;4.90;;;;;;;;;;6145875;29;20173;-80
2021/07/19 03:33:59;;;;;;;9.02;6.07;;;;;;;;;;6159571;28;20051;-80
2021/07/19 03:37:02;;;;;;;8.32;5.10;;;;;;;;;;6173651;28;20074;-80
2021/07/19 03:40:07;;;;;;;7.72;3.97;;;;;;;;;;6155500;28;20079;-80
2021/07/19 03:43:13;;;;;;;6.53;4.05;;;;;;;;;;6167184;28;20043;-80
2021/07/19 03:46:20;;;;;;;8.35;4.78;;;;;;;;;;6153123;28;20043;-81
2021/07/19 03:49:23;;;;;;;5.72;4.38;;;;;;;;;;6169908;28;20131;-80
2021/07/19 03:52:26;;;;;;;7.68;4.28;;;;;;;;;;6157679;28;20047;-80
2021/07/19 03:55:29;;;;;;;7.07;3.90;;;;;;;;;;6151455;28;20043;-80
2021/07/19 03:58:33;;;;;;;6.95;4.10;;;;;;;;;;6132826;29;20770;-80
2021/07/19 04:01:38;;;;;;;7.55;4.28;;;;;;;;;;6133694;28;20066;-80
2021/07/19 04:04:45;;;;;;;5.35;3.72;;;;;;;;;;6131345;29;20059;-81
2021/07/19 04:07:49;;;;;;;6.50;4.38;;;;;;;;;;6172452;28;20107;-80
2021/07/19 04:10:52;;;;;;;7.22;3.92;;;;;;;;;;6160599;28;20067;-80
2021/07/19 04:13:56;;;;;;;7.22;4.63;;;;;;;;;;6131526;29;20557;-80
2021/07/19 04:16:59;;;;;;;4.93;4.20;;;;;;;;;;6139212;28;20067;-80
2021/07/19 04:20:06;;;;;;;6.88;4.53;;;;;;;;;;6155000;28;20047;-80
2021/07/19 04:23:12;;;;;;;6.40;3.80;;;;;;;;;;6155355;28;20043;-80
2021/07/19 04:26:15;;;;;;;8.55;3.97;;;;;;;;;;6168364;28;20053;-80
2021/07/19 04:29:23;;;;;;;7.53;4.22;;;;;;;;;;6146731;28;20509;-81
2021/07/19 04:32:27;;;;;;;6.25;4.57;;;;;;;;;;6127805;29;20103;-80
2021/07/19 04:35:29;;;;;;;5.60;4.07;;;;;;;;;;6129718;29;20047;-80
2021/07/19 04:38:32;;;;;;;5.50;4.40;;;;;;;;;;6128717;29;20067;-80
2021/07/19 04:41:42;;;;;;;7.32;4.70;;;;;;;;;;6129185;29;20754;-80
2021/07/19 04:44:44;;;;;;;7.63;4.85;;;;;;;;;;6128050;29;20044;-80
2021/07/19 04:47:47;;;;;;;7.00;4.70;;;;;;;;;;6129240;29;20417;-80
2021/07/19 04:50:49;;;;;;;7.18;4.80;;;;;;;;;;6128666;29;20051;-80
2021/07/19 04:53:54;;;;;;;6.97;4.70;;;;;;;;;;6131667;29;20129;-80
2021/07/19 04:57:01;;;;;;;5.90;4.30;;;;;;;;;;6121201;29;20055;-81
2021/07/19 05:00:06;;;;;;;9.18;4.38;;;;;;;;;;6107816;29;20605;-80
2021/07/19 05:03:09;;;;;;;7.32;4.85;;;;;;;;;;6105676;29;20076;-81
2021/07/19 05:06:13;;;;;;;7.25;4.47;;;;;;;;;;6120503;29;20055;-83
2021/07/19 05:09:16;;;;;;;6.93;4.82;;;;;;;;;;6109177;29;20056;-80
2021/07/19 05:12:22;;;;;;;8.63;5.00;;;;;;;;;;6107971;29;20044;-80
2021/07/19 05:15:24;;;;;;;7.47;4.68;;;;;;;;;;6122077;29;20056;-81
2021/07/19 05:18:26;;;;;;;7.87;4.97;;;;;;;;;;6107533;29;20066;-80
2021/07/19 05:21:31;;;;;;;6.88;4.50;;;;;;;;;;6108732;29;20519;-81
2021/07/19 05:24:33;;;;;;;7.63;4.47;;;;;;;;;;6108817;29;20040;-81
2021/07/19 05:27:34;;;;;;;6.88;4.45;;;;;;;;;;6141710;29;20649;-81
2021/07/19 05:30:40;;;;;;;9.52;5.03;;;;;;;;;;6126175;29;20043;-81
2021/07/19 05:33:42;;;;;;;7.53;4.80;;;;;;;;;;6124112;29;20075;-81
2021/07/19 05:36:44;;;;;;;8.32;4.88;;;;;;;;;;6130705;28;20058;-80
2021/07/19 05:39:46;;;;;;;8.18;5.32;;;;;;;;;;6141778;28;20039;-80
2021/07/19 05:42:47;;;;;;;9.38;5.07;;;;;;;;;;6126628;29;20545;-80
2021/07/19 05:45:49;;;;;;;7.45;4.60;;;;;;;;;;6125956;29;20123;-81
2021/07/19 05:48:51;;;;;;;9.55;5.30;;;;;;;;;;6140978;28;20047;-80
2021/07/19 05:51:52;;;;;;;6.15;4.78;;;;;;;;;;6123904;29;20059;-81
2021/07/19 05:54:56;;;;;;;11.18;5.35;;;;;;;;;;6125283;29;20705;-80
2021/07/19 05:57:59;;;;;;;11.25;5.60;;;;;;;;;;6124152;29;20055;-81
2021/07/19 06:01:01;;;;;;;8.37;5.20;;;;;;;;;;6102547;29;20044;-80
2021/07/19 06:04:03;;;;;;;11.18;5.20;;;;;;;;;;6132086;29;20519;-80
2021/07/19 06:07:05;;;;;;;9.00;5.10;;;;;;;;;;6141791;28;20099;-81
2021/07/19 06:10:11;;;;;;;10.50;4.93;;;;;;;;;;6160166;28;20055;-80
2021/07/19 06:13:13;;;;;;;8.05;4.32;;;;;;;;;;6125148;29;20047;-80
2021/07/19 06:16:14;;;;;;;8.02;4.60;;;;;;;;;;6124778;29;20497;-80
2021/07/19 06:19:16;;;;;;;7.45;4.60;;;;;;;;;;6125707;29;20048;-80
2021/07/19 06:22:18;;;;;;;6.73;4.23;;;;;;;;;;6125151;28;20076;-79
2021/07/19 06:25:20;;;;;;;5.93;4.25;;;;;;;;;;6124036;29;20048;-79
2021/07/19 06:28:22;;;;;;;7.97;4.60;;;;;;;;;;6122868;29;20131;-78
2021/07/19 06:31:24;;;;;;;8.38;4.57;;;;;;;;;;6118538;28;20047;-77
2021/07/19 06:34:25;;;;;;;10.82;5.13;;;;;;;;;;6133035;29;20043;-77
2021/07/19 06:37:27;;;;;;;7.55;4.65;;;;;;;;;;6118528;29;20166;-77
2021/07/19 06:40:29;;;;;;;7.03;4.80;;;;;;;;;;6118724;28;20118;-77
2021/07/19 06:43:30;;;;;;;9.20;5.18;;;;;;;;;;6117694;29;20134;-77
2021/07/19 06:46:32;;;;;;;9.70;5.40;;;;;;;;;;6123566;28;20063;-79
2021/07/19 06:49:34;;;;;;;8.35;5.72;;;;;;;;;;6118617;28;20047;-79
2021/07/19 06:52:37;;;;;;;8.82;5.28;;;;;;;;;;6117816;29;20562;-77
2021/07/19 06:55:38;;;;;;;;;;;;;;;;;;6133313;28;20067;-78
2021/07/19 06:58:40;;;;;;;9.40;5.38;;;;;;;;;;6117603;29;19975;-79
2021/07/19 07:01:42;;;;;;;9.80;5.97;;;;;;;;;;6117080;29;20135;-77
2021/07/19 07:04:45;;;;;;;9.33;5.60;;;;;;;;;;6118173;28;20044;-79
2021/07/19 07:07:46;;;;;;;11.25;5.85;;;;;;;;;;6142870;28;20082;-77
2021/07/19 07:10:49;;;;;;;10.80;5.88;;;;;;;;;;6131329;28;20067;-77
2021/07/19 07:13:51;;;;;;;;;;;;;;;;;;6118085;28;20718;-77
2021/07/19 07:16:53;;;;;;;10.75;6.20;;;;;;;;;;6122196;28;19937;-77
2021/07/19 07:19:55;;;;;;;9.57;5.97;;;;;;;;;;6141902;28;20137;-76
2021/07/19 07:22:57;;;;;;;10.75;6.15;;;;;;;;;;6140167;28;20158;-76
2021/07/19 07:26:04;;;;;;;12.85;6.35;;;;;;;;;;6137220;28;20047;-78
2021/07/19 07:29:05;;;;;;;10.32;5.90;;;;;;;;;;6140386;28;20248;-77
2021/07/19 07:32:07;;;;;;;11.77;6.88;;;;;;;;;;6140479;28;20083;-77
2021/07/19 07:35:12;;;;;;;11.23;6.13;;;;;;;;;;6139976;28;20054;-78
2021/07/19 07:38:13;;;;;;;12.77;7.30;;;;;;;;;;6139513;28;20095;-77
2021/07/19 07:41:16;;;;;;;12.95;7.05;;;;;;;;;;6115586;29;20076;-78
2021/07/19 07:44:18;;;;;;;9.95;6.43;;;;;;;;;;6115409;28;20054;-77
2021/07/19 07:47:19;;;;;;;13.23;6.80;;;;;;;;;;6113474;28;20131;-77
2021/07/19 07:50:21;;;;;;;12.15;7.00;;;;;;;;;;6113095;28;20067;-75
2021/07/19 07:53:23;;;;;;;11.60;6.50;;;;;;;;;;6111155;28;20175;-80
2021/07/19 07:56:25;;;;;;;10.23;6.30;;;;;;;;;;6137558;28;20190;-77
2021/07/19 07:59:27;;;;;;;11.13;6.80;;;;;;;;;;6138277;28;20086;-77
2021/07/19 08:02:29;;;;;;;12.43;7.15;;;;;;;;;;6133194;28;20043;-77
2021/07/19 08:05:31;;;;;;;13.93;6.95;;;;;;;;;;6135508;28;20054;-76
2021/07/19 08:08:33;;;;;;;12.07;7.35;;;;;;;;;;6137769;28;20118;-78
2021/07/19 08:11:35;;;;;;;11.15;6.95;;;;;;;;;;6130724;28;20048;-76
2021/07/19 08:14:36;;;;;;;10.60;6.80;;;;;;;;;;6115600;29;20156;-77
2021/07/19 08:17:38;;;;;;;12.63;7.15;;;;;;;;;;6116634;28;20556;-78
2021/07/19 08:20:40;;;;;;;11.52;7.47;;;;;;;;;;6098960;29;20187;-76
2021/07/19 08:23:41;;;;;;;13.38;7.82;;;;;;;;;;6123330;28;20087;-78
2021/07/19 08:26:43;;;;;;;12.10;7.30;;;;;;;;;;6134227;28;20514;-77
2021/07/19 08:29:45;;;;;;;14.00;7.57;;;;;;;;;;6138956;28;20059;-77
2021/07/19 08:32:46;;;;;;;10.23;6.85;;;;;;;;;;6106804;29;20150;-81
2021/07/19 08:35:49;;;;;;;15.88;8.10;;;;;;;;;;6133797;29;20714;-80
2021/07/19 08:38:51;;;;;;;11.95;7.60;;;;;;;;;;6118010;29;20051;-79
2021/07/19 08:41:53;;;;;;;12.35;8.07;;;;;;;;;;6105846;29;20199;-80
2021/07/19 08:44:55;;;;;;;11.33;7.50;;;;;;;;;;6093317;29;20103;-80
2021/07/19 08:47:56;;;;;;;13.18;8.50;;;;;;;;;;6113177;29;20448;-79
2021/07/19 08:50:59;;;;;;;13.38;8.13;;;;;;;;;;6115351;29;20692;-79
2021/07/19 08:54:02;;;;;;;12.75;8.43;;;;;;;;;;6116165;29;20067;-79
2021/07/19 08:57:05;;;;;;;13.47;8.57;;;;;;;;;;6102613;29;20047;-79
2021/07/19 09:00:21;;;;;;;12.63;8.40;;;;;;;;;;6091402;29;20134;-80
2021/07/19 09:03:30;;;;;;;12.15;7.97;;;;;;;;;;6092706;29;20052;-79
2021/07/19 09:06:32;;;;;;;12.05;8.40;;;;;;;;;;6123789;28;20059;-79
2021/07/19 09:09:34;;;;;;;14.15;9.07;;;;;;;;;;6185214;28;20141;-80
2021/07/19 09:12:39;;;;;;;14.27;9.95;;;;;;;;;;6148055;28;20043;-80
2021/07/19 09:15:41;;;;;;;11.88;8.45;;;;;;;;;;6146571;28;20583;-79
2021/07/19 09:18:42;;;;;;;13.15;8.85;;;;;;;;;;6128275;28;20125;-80
2021/07/19 09:21:47;;;;;;;14.30;8.98;;;;;;;;;;6138047;29;20118;-80
2021/07/19 09:25:16;;;;;;;15.57;9.52;;;;;;;;;;6136432;28;20075;-80
2021/07/19 09:28:18;;;;;;;15.55;9.60;;;;;;;;;;6122409;29;20051;-80
2021/07/19 09:31:33;;;;;;;16.13;9.43;;;;;;;;;;6130008;28;20206;-80
2021/07/19 09:34:36;;;;;;;13.35;9.13;;;;;;;;;;6121916;29;20111;-80
2021/07/19 09:37:40;;;;;;;;;;;;;;;;;;6101624;29;20170;-80
2021/07/19 09:40:44;;;;;;;14.57;8.98;;;;;;;;;;6099233;29;19975;-80
2021/07/19 09:43:51;;;;;;;16.58;10.32;;;;;;;;;;6112500;29;20134;-79
2021/07/19 09:46:59;;;;;;;13.15;9.60;;;;;;;;;;6142762;28;20138;-80
2021/07/19 09:50:08;;;;;;;16.52;9.98;;;;;;;;;;6121675;29;20130;-80
2021/07/19 09:53:11;;;;;;;13.43;9.60;;;;;;;;;;6122017;29;20067;-79
2021/07/19 09:56:19;;;;;;;14.15;10.00;;;;;;;;;;6122074;28;20036;-77
2021/07/19 09:59:20;;;;;;;14.82;9.80;;;;;;;;;;6141133;28;20103;-77
2021/07/19 10:02:36;;;;;;;15.50;9.95;;;;;;;;;;6122370;28;20118;-77
2021/07/19 10:05:39;;;;;;;14.13;9.75;;;;;;;;;;6141030;28;20055;-77
2021/07/19 10:08:54;;;;;;;13.02;9.60;;;;;;;;;;6143015;28;20039;-79
2021/07/19 10:11:56;;;;;;;13.90;10.15;;;;;;;;;;6133746;28;20960;-78
2021/07/19 10:15:00;;;;;;;14.93;10.20;;;;;;;;;;6116366;29;20491;-77
2021/07/19 10:18:23;;;;;;;12.95;9.57;;;;;;;;;;6124477;28;20122;-77
2021/07/19 10:21:29;;;;;;;;;;;;;;;;;;6120231;29;20040;-78
2021/07/19 10:24:31;;;;;;;15.30;10.02;;;;;;;;;;6118532;29;20493;-77
2021/07/19 10:27:36;;;;;;;14.95;10.43;;;;;;;;;;6133173;28;20199;-77
2021/07/19 10:30:40;;;;;;;15.55;10.07;;;;;;;;;;6142671;28;20575;-77
2021/07/19 10:33:42;;;;;;;15.73;10.63;;;;;;;;;;6121185;28;20047;-78
2021/07/19 10:36:51;;;;;;;14.00;9.90;;;;;;;;;;6117077;29;20133;-77
2021/07/19 10:39:58;;;;;;;15.65;10.63;;;;;;;;;;6116081;29;20511;-77
2021/07/19 10:43:15;;;;;;;14.75;10.77;;;;;;;;;;6116461;29;20174;-77
2021/07/19 10:46:26;;;;;;;16.00;10.65;;;;;;;;;;6122528;28;20560;-78
2021/07/19 10:49:30;;;;;;;16.35;10.75;;;;;;;;;;6130909;29;20074;-77
2021/07/19 10:52:34;;;;;;;15.48;10.82;;;;;;;;;;6130378;29;20059;-77
2021/07/19 10:55:36;;;;;;;14.82;11.05;;;;;;;;;;6116512;29;20182;-78
2021/07/19 10:58:47;;;;;;;15.00;10.93;;;;;;;;;;6118628;29;20131;-78
2021/07/19 11:01:53;;;;;;;15.95;10.68;;;;;;;;;;6116941;28;20450;-79
2021/07/19 11:04:56;;;;;;;14.90;10.95;;;;;;;;;;6116831;29;20502;-78
2021/07/19 11:07:57;;;;;;;15.45;10.88;;;;;;;;;;6132043;28;20134;-79
2021/07/19 11:11:04;;;;;;;14.98;11.32;;;;;;;;;;6133439;28;20054;-80
2021/07/19 11:14:22;;;;;;;14.70;11.63;;;;;;;;;;6118255;29;20122;-79
2021/07/19 11:17:28;;;;;;;14.40;11.15;;;;;;;;;;6121016;29;20043;-80
2021/07/19 11:20:39;;;;;;;17.00;11.50;;;;;;;;;;6116790;29;20047;-78
2021/07/19 11:23:41;;;;;;;16.38;11.27;;;;;;;;;;6131782;29;20175;-79
2021/07/19 11:26:52;;;;;;;13.80;10.53;;;;;;;;;;6117865;29;20075;-77
2021/07/19 11:30:11;;;;;;;15.80;11.25;;;;;;;;;;6117527;29;20491;-77
2021/07/19 11:33:13;;;;;;;18.15;11.32;;;;;;;;;;6120701;29;20048;-78
2021/07/19 11:36:23;;;;;;;17.23;12.10;;;;;;;;;;6116931;29;20149;-79
2021/07/19 11:39:24;;;;;;;14.45;11.35;;;;;;;;;;6116135;29;20044;-79
2021/07/19 11:42:47;;;;;;;14.57;11.37;;;;;;;;;;6136361;28;20496;-79
2021/07/19 11:45:49;;;;;;;17.15;12.55;;;;;;;;;;6138992;28;20125;-78
2021/07/19 11:49:06;;;;;;;16.60;11.90;;;;;;;;;;6154086;28;20149;-79
2021/07/19 11:52:09;;;;;;;16.98;12.27;;;;;;;;;;6137771;28;20059;-78
2021/07/19 11:55:17;;;;;;;18.65;13.18;;;;;;;;;;6141316;28;20035;-79
2021/07/19 11:58:19;;;;;;;15.30;12.68;;;;;;;;;;6152659;28;20570;-79
2021/07/19 12:01:31;;;;;;;15.80;12.10;;;;;;;;;;6138963;28;20094;-78
2021/07/19 12:04:42;;;;;;;16.80;12.55;;;;;;;;;;6137607;28;20050;-79
2021/07/19 12:07:44;;;;;;;16.98;12.38;;;;;;;;;;6139399;28;20142;-79
2021/07/19 12:10:47;;;;;;;17.58;12.43;;;;;;;;;;6139430;28;20182;-78
2021/07/19 12:13:49;;;;;;;19.27;12.63;;;;;;;;;;6148065;28;20564;-77
2021/07/19 12:16:51;;;;;;;17.63;12.00;;;;;;;;;;6132845;28;20449;-79
2021/07/19 12:19:52;;;;;;;18.30;12.50;;;;;;;;;;6136981;28;20039;-79
2021/07/19 12:22:55;;;;;;;18.70;12.30;;;;;;;;;;6137954;28;20440;-81
2021/07/19 12:25:58;;;;;;;16.10;12.55;;;;;;;;;;6122408;28;20526;-78
2021/07/19 12:29:02;;;;;;;19.00;12.30;;;;;;;;;;6112839;29;20063;-78
2021/07/19 12:32:08;;;;;;;17.50;13.20;;;;;;;;;;6116877;28;20652;-78
2021/07/19 12:35:10;;;;;;;20.77;13.00;;;;;;;;;;6136545;28;20047;-78
2021/07/19 12:38:13;;;;;;;17.92;12.07;;;;;;;;;;6139516;28;20039;-79
2021/07/19 12:41:16;;;;;;;15.48;12.45;;;;;;;;;;6130270;29;20043;-77
2021/07/19 12:44:22;;;;;;;16.75;12.35;;;;;;;;;;6129732;29;20102;-78
2021/07/19 12:47:26;;;;;;;19.00;12.95;;;;;;;;;;6105815;29;20187;-77
2021/07/19 12:50:27;;;;;;;18.38;12.80;;;;;;;;;;6134073;28;20145;-78
2021/07/19 12:53:34;;;;;;;17.92;12.70;;;;;;;;;;6139091;28;20740;-78
2021/07/19 12:56:40;;;;;;;17.15;12.07;;;;;;;;;;6139662;28;20054;-78
2021/07/19 12:59:47;;;;;;;18.50;12.50;;;;;;;;;;6119768;28;20055;-77
2021/07/19 13:03:05;;;;;;;17.27;12.15;;;;;;;;;;6116184;28;20097;-78
2021/07/19 13:06:07;;;;;;;17.10;12.38;;;;;;;;;;6129412;29;20119;-79
2021/07/19 13:09:18;;;;;;;16.85;12.95;;;;;;;;;;6161649;28;20173;-78
2021/07/19 13:12:19;;;;;;;17.02;12.20;;;;;;;;;;6141764;28;20536;-79
2021/07/19 13:15:21;;;;;;;17.57;12.73;;;;;;;;;;6139526;28;20178;-78
2021/07/19 13:18:23;;;;;;;17.25;12.82;;;;;;;;;;6122826;28;20490;-78
2021/07/19 13:21:26;;;;;;;16.13;12.23;;;;;;;;;;6116466;29;20126;-78
2021/07/19 13:24:44;;;;;;;17.52;12.85;;;;;;;;;;6127710;28;20054;-76
2021/07/19 13:27:46;;;;;;;19.58;12.27;;;;;;;;;;6136808;28;20098;-77
2021/07/19 13:30:48;;;;;;;15.90;12.57;;;;;;;;;;6138962;28;20126;-78
2021/07/19 13:33:50;;;;;;;16.58;12.55;;;;;;;;;;6134001;28;20521;-77
2021/07/19 13:36:53;;;;;;;17.63;11.77;;;;;;;;;;6123629;28;20043;-76
2021/07/19 13:40:24;;;;;;;16.77;11.70;;;;;;;;;;6130489;28;20051;-77
2021/07/19 13:43:26;;;;;;;17.88;12.50;;;;;;;;;;6136137;28;20419;-77
2021/07/19 13:46:30;;;;;;;18.23;11.77;;;;;;;;;;6123762;28;20576;-77
2021/07/19 13:49:33;;;;;;;14.95;11.40;;;;;;;;;;6133631;28;20540;-77
2021/07/19 13:52:34;;;;;;;;;;;;;;;;;;6140583;28;20067;-77
2021/07/19 13:55:36;;;;;;;15.35;11.55;;;;;;;;;;6116517;29;19927;-77
2021/07/19 13:58:42;;;;;;;16.05;11.88;;;;;;;;;;6139354;28;20118;-77
2021/07/19 14:01:45;;;;;;;16.75;11.77;;;;;;;;;;6110061;28;20621;-77
2021/07/19 14:04:50;;;;;;;17.02;12.52;;;;;;;;;;6100700;29;20048;-77
2021/07/19 14:07:52;;;;;;;17.42;12.35;;;;;;;;;;6153576;28;20050;-77
2021/07/19 14:10:56;;;;;;;18.45;12.00;;;;;;;;;;6136405;28;20146;-78
2021/07/19 14:13:58;;;;;;;15.57;11.55;;;;;;;;;;6125975;29;20051;-78
2021/07/19 14:17:00;;;;;;;19.65;12.45;;;;;;;;;;6112589;28;20048;-78
2021/07/19 14:20:03;;;;;;;15.23;12.02;;;;;;;;;;6113077;28;20052;-79
2021/07/19 14:23:04;;;;;;;16.25;12.57;;;;;;;;;;6116917;28;20134;-78
2021/07/19 14:26:06;;;;;;;16.85;12.35;;;;;;;;;;6116111;29;20183;-81
2021/07/19 14:29:08;;;;;;;15.55;12.23;;;;;;;;;;6118618;29;20126;-79
2021/07/19 14:32:10;;;;;;;15.90;12.13;;;;;;;;;;6114299;28;20126;-79
2021/07/19 14:35:13;;;;;;;15.40;11.33;;;;;;;;;;6116811;28;20052;-78
2021/07/19 14:38:15;;;;;;;18.67;12.98;;;;;;;;;;6116818;28;20421;-78
2021/07/19 14:41:18;;;;;;;16.45;11.70;;;;;;;;;;6112229;29;20056;-79
2021/07/19 14:44:19;;;;;;;17.92;12.80;;;;;;;;;;6114763;29;20083;-79
2021/07/19 14:47:21;;;;;;;17.33;11.65;;;;;;;;;;6106607;29;20046;-79
2021/07/19 14:50:25;;;;;;;17.08;12.45;;;;;;;;;;6106146;29;20063;-81
2021/07/19 14:53:27;;;;;;;19.13;12.25;;;;;;;;;;6092075;29;20075;-79
2021/07/19 14:56:28;;;;;;;16.73;11.87;;;;;;;;;;6098384;29;20075;-79
2021/07/19 14:59:30;;;;;;;20.23;12.10;;;;;;;;;;6117599;29;20684;-79
2021/07/19 15:02:31;;;;;;;16.83;12.20;;;;;;;;;;6107383;29;20169;-79
2021/07/19 15:05:33;;;;;;;18.05;12.02;;;;;;;;;;6092670;29;20398;-77
2021/07/19 15:08:36;;;;;;;16.52;11.95;;;;;;;;;;6126478;29;20098;-78
2021/07/19 15:11:37;;;;;;;;;;;;;;;;;;6110696;29;20044;-78
2021/07/19 15:14:39;;;;;;;14.82;11.05;;;;;;;;;;6091095;29;19923;-78
2021/07/19 15:17:41;;;;;;;15.73;11.10;;;;;;;;;;6126570;28;20068;-78
2021/07/19 15:20:42;;;;;;;17.55;11.30;;;;;;;;;;6141447;28;20102;-78
2021/07/19 15:23:44;;;;;;;16.45;10.90;;;;;;;;;;6140572;28;20126;-78
2021/07/19 15:26:46;;;;;;;14.77;11.18;;;;;;;;;;6129895;28;20818;-79
2021/07/19 15:29:47;;;;;;;15.98;11.55;;;;;;;;;;6117354;29;20122;-78
2021/07/19 15:32:49;;;;;;;14.88;10.90;;;;;;;;;;6131785;28;20525;-76
2021/07/19 15:35:50;;;;;;;16.05;11.00;;;;;;;;;;6115095;29;20126;-76
2021/07/19 15:38:53;;;;;;;16.83;10.60;;;;;;;;;;6131853;29;20119;-76
2021/07/19 15:41:55;;;;;;;;;;;;;;;;;;6140157;28;20053;-76
2021/07/19 15:44:58;;;;;;;15.45;11.20;;;;;;;;;;6141334;28;20017;-77
2021/07/19 15:48:01;;;;;;;18.10;11.10;;;;;;;;;;6130552;29;20054;-77
2021/07/19 15:51:03;;;;;;;15.77;11.18;;;;;;;;;;6118920;29;20079;-76
2021/07/19 15:54:04;;;;;;;13.90;10.87;;;;;;;;;;6114401;29;20066;-75
2021/07/19 15:57:08;;;;;;;15.43;11.20;;;;;;;;;;6115300;29;20444;-76
2021/07/19 16:00:11;;;;;;;16.27;10.98;;;;;;;;;;6137574;28;20463;-76
2021/07/19 16:03:12;;;;;;;15.65;10.40;;;;;;;;;;6128873;29;20122;-76
2021/07/19 16:06:14;;;;;;;15.93;11.70;;;;;;;;;;6136465;28;20097;-76
2021/07/19 16:09:16;;;;;;;15.50;10.77;;;;;;;;;;6153646;28;20047;-76
2021/07/19 16:12:18;;;;;;;14.80;10.38;;;;;;;;;;6115688;29;20534;-75
2021/07/19 16:15:20;;;;;;;15.13;11.23;;;;;;;;;;6115262;29;20126;-75
2021/07/19 16:18:22;;;;;;;16.05;11.23;;;;;;;;;;6116366;28;20553;-76
2021/07/19 16:21:24;;;;;;;17.38;11.27;;;;;;;;;;6130051;29;20040;-75
2021/07/19 16:24:25;;;;;;;15.40;11.15;;;;;;;;;;6115659;29;20183;-75
2021/07/19 16:27:27;;;;;;;17.58;10.98;;;;;;;;;;6114783;29;20147;-75
2021/07/19 16:30:29;;;;;;;15.40;10.85;;;;;;;;;;6116125;29;20164;-76
2021/07/19 16:33:34;;;;;;;17.23;11.05;;;;;;;;;;6129182;28;20054;-76
2021/07/19 16:36:36;;;;;;;19.48;11.73;;;;;;;;;;6138219;28;20101;-75
2021/07/19 16:39:38;;;;;;;16.15;10.48;;;;;;;;;;6135035;28;20043;-75
2021/07/19 16:42:40;;;;;;;17.48;11.40;;;;;;;;;;6150535;28;20057;-76
2021/07/19 16:48:43;;;;;;;15.65;11.10;;;;;;;;;;6134036;28;20051;-75
2021/07/19 16:51:45;;;;;;;16.73;11.30;;;;;;;;;;6130026;29;20182;-75
2021/07/19 16:54:46;;;;;;;17.08;10.45;;;;;;;;;;6144635;28;20122;-77
2021/07/19 16:57:48;;;;;;;17.88;11.07;;;;;;;;;;6141058;28;20131;-75
2021/07/19 17:00:54;;;;;;;18.05;11.50;;;;;;;;;;6115358;29;20055;-74
2021/07/19 17:03:56;;;;;;;16.48;10.75;;;;;;;;;;6115272;29;20043;-75
2021/07/19 17:06:57;;;;;;;17.60;10.85;;;;;;;;;;6134676;28;20051;-75
2021/07/19 17:09:59;;;;;;;19.58;10.80;;;;;;;;;;6138279;28;20109;-77
2021/07/19 17:13:02;;;;;;;19.65;10.93;;;;;;;;;;6137767;28;20054;-75
2021/07/19 17:16:03;;;;;;;19.05;10.80;;;;;;;;;;6137343;28;20179;-78
2021/07/19 17:19:05;;;;;;;16.13;10.90;;;;;;;;;;6117231;28;20622;-77
2021/07/19 17:22:07;;;;;;;17.95;11.27;;;;;;;;;;6115186;29;20047;-77
2021/07/19 17:25:13;;;;;;;16.15;10.35;;;;;;;;;;6116622;29;20043;-77
2021/07/19 17:28:15;;;;;;;17.67;11.10;;;;;;;;;;6138216;28;20050;-77
2021/07/19 17:31:17;;;;;;;17.92;10.70;;;;;;;;;;6138986;28;20053;-77
2021/07/19 17:34:19;;;;;;;17.63;11.33;;;;;;;;;;6136749;28;20050;-77
2021/07/19 17:37:21;;;;;;;16.25;11.07;;;;;;;;;;6138645;28;20441;-77
2021/07/19 17:40:23;;;;;;;14.95;10.70;;;;;;;;;;6137636;28;20566;-77
2021/07/19 17:43:24;;;;;;;17.38;11.27;;;;;;;;;;6139233;28;20531;-77
2021/07/19 17:46:27;;;;;;;16.30;10.15;;;;;;;;;;6138151;28;20050;-77
2021/07/19 17:49:29;;;;;;;16.13;10.63;;;;;;;;;;6137323;28;20139;-77
2021/07/19 17:52:30;;;;;;;18.38;10.30;;;;;;;;;;6149061;28;20110;-77
2021/07/19 17:55:32;;;;;;;19.05;10.90;;;;;;;;;;6135808;28;20130;-77
2021/07/19 17:58:34;;;;;;;18.37;10.77;;;;;;;;;;6121166;28;20591;-77
2021/07/19 18:01:35;;;;;;;20.15;10.93;;;;;;;;;;6154823;28;20039;-78
2021/07/19 18:04:37;;;;;;;17.70;10.73;;;;;;;;;;6119150;29;20398;-77
2021/07/19 18:07:40;;;;;;;18.33;10.18;;;;;;;;;;6144780;28;20138;-77
2021/07/19 18:10:42;;;;;;;18.15;10.98;;;;;;;;;;6135143;28;20114;-76
2021/07/19 18:13:44;;;;;;;18.65;11.15;;;;;;;;;;6118641;29;20036;-77
2021/07/19 18:16:46;;;;;;;18.65;11.15;;;;;;;;;;6129916;28;20047;-76